Time;durP1;ratioP1;P1;durP2;ratioP2;P2;SDS_P1;SDS_P2;PMS_P1;PMS_P2;Temp;Humidity;BMP_temperature;BMP_pressure;BME280_temperature;BME280_humidity;BME280_pressure;Samples;Min_cycle;Max_cycle;Signal;HPM_P1;HPM_P2
2020/12/02 00:02:33;;;;;;;68.78;26.60;;;;;;;9.42;77.00;102004.63;5032306;28;20049;-81
2020/12/02 00:05:03;;;;;;;72.70;27.75;;;;;;;9.40;76.56;102004.69;5033232;28;20055;-81
2020/12/02 00:07:30;;;;;;;71.50;26.70;;;;;;;9.39;76.40;102004.72;5020648;28;20052;-81
2020/12/02 00:09:57;;;;;;;73.53;27.25;;;;;;;9.37;76.51;101999.47;4990140;28;20056;-81
2020/12/02 00:12:24;;;;;;;76.28;27.75;;;;;;;9.35;76.54;102014.47;5025580;28;20156;-81
2020/12/02 00:14:50;;;;;;;78.03;27.17;;;;;;;9.35;76.66;102009.19;5019924;28;20059;-81
2020/12/02 00:17:19;;;;;;;72.57;26.08;;;;;;;9.37;76.85;102012.69;5011090;28;20053;-81
2020/12/02 00:19:50;;;;;;;63.47;24.95;;;;;;;9.37;76.60;102001.25;5021006;28;20128;-81
2020/12/02 00:22:20;;;;;;;66.63;26.08;;;;;;;9.35;76.46;102004.78;5032799;28;20451;-80
2020/12/02 00:24:48;;;;;;;58.05;21.23;;;;;;;9.35;76.71;102014.47;5033368;28;20044;-81
2020/12/02 00:27:32;;;;;;;60.05;23.15;;;;;;;9.34;76.96;102007.44;5014064;28;20045;-81
2020/12/02 00:29:58;;;;;;;56.42;22.05;;;;;;;9.33;76.88;102011.00;5030191;28;20056;-81
2020/12/02 00:32:28;;;;;;;58.80;23.45;;;;;;;9.31;76.67;102007.53;5032225;28;20041;-81
2020/12/02 00:34:54;;;;;;;63.72;23.48;;;;;;;9.30;76.57;102016.34;5015798;28;20053;-81
2020/12/02 00:37:20;;;;;;;52.47;21.80;;;;;;;9.29;76.75;102014.63;4987951;28;20050;-80
2020/12/02 00:39:47;;;;;;;58.05;22.35;;;;;;;9.27;76.72;102012.00;5004517;28;20417;-80
2020/12/02 00:42:13;;;;;;;51.72;21.83;;;;;;;9.26;76.56;102022.59;4997714;28;20033;-81
2020/12/02 00:44:39;;;;;;;55.05;21.48;;;;;;;9.25;77.10;102012.91;5022662;28;20045;-81
2020/12/02 00:47:15;;;;;;;60.33;23.15;;;;;;;9.25;76.83;102008.53;5024570;28;20050;-81
2020/12/02 00:49:41;;;;;;;58.05;24.02;;;;;;;9.26;76.66;102006.75;5014701;28;20137;-81
2020/12/02 00:52:07;;;;;;;57.75;22.90;;;;;;;9.23;76.85;102004.16;5020899;28;20044;-81
2020/12/02 00:54:35;;;;;;;64.38;23.98;;;;;;;9.21;76.91;102005.97;4990733;28;20049;-81
2020/12/02 00:57:02;;;;;;;54.13;21.02;;;;;;;9.21;76.83;102011.25;4992904;28;20038;-80
2020/12/02 00:59:30;;;;;;;57.22;22.73;;;;;;;9.20;77.14;101998.94;4989001;28;20082;-81
2020/12/02 01:02:07;;;;;;;55.42;23.05;;;;;;;9.19;77.02;101991.91;4996669;28;20029;-81
2020/12/02 01:04:36;;;;;;;56.22;21.35;;;;;;;9.19;77.01;101997.19;5021805;28;20051;-80
2020/12/02 01:07:02;;;;;;;55.15;21.92;;;;;;;9.17;76.84;101994.56;4995842;28;20072;-81
2020/12/02 01:09:28;;;;;;;55.03;22.38;;;;;;;9.16;76.75;101983.13;5017815;28;20412;-81
2020/12/02 01:12:00;;;;;;;57.22;21.92;;;;;;;9.17;77.18;101984.00;5001496;28;20049;-80
2020/12/02 01:14:28;;;;;;;49.40;20.38;;;;;;;9.16;77.00;101982.28;5014682;28;20140;-81
2020/12/02 01:16:56;;;;;;;63.83;22.40;;;;;;;9.16;77.30;101980.50;4979413;28;20137;-81
2020/12/02 01:19:26;;;;;;;61.65;22.67;;;;;;;9.18;77.23;101979.59;5023871;28;20133;-81
2020/12/02 01:22:14;;;;;;;57.83;22.33;;;;;;;9.18;76.79;101979.59;5036762;28;20041;-80
2020/12/02 01:25:17;;;;;;;58.50;21.13;;;;;;;9.18;77.10;101984.91;5029765;28;20048;-81
2020/12/02 01:27:58;;;;;;;60.22;22.05;;;;;;;9.18;76.85;101974.31;4982389;28;20045;-81
2020/12/02 01:30:24;;;;;;;61.90;22.58;;;;;;;9.18;77.10;101979.59;5035535;28;20136;-81
2020/12/02 01:32:51;;;;;;;60.40;22.25;;;;;;;9.20;76.91;101972.50;5041705;28;20428;-81
2020/12/02 01:35:24;;;;;;;53.08;21.17;;;;;;;9.21;77.44;101979.53;5034347;28;20046;-81
2020/12/02 01:37:54;;;;;;;61.65;21.80;;;;;;;9.23;76.93;101977.72;5016714;28;20053;-81
2020/12/02 01:40:30;;;;;;;63.08;22.60;;;;;;;9.22;76.82;101981.28;5013815;28;20041;-81
2020/12/02 01:43:00;;;;;;;64.50;22.70;;;;;;;9.23;77.05;101983.00;5028697;28;20037;-81
2020/12/02 01:45:26;;;;;;;57.33;20.85;;;;;;;9.23;76.74;101983.00;4993789;28;20060;-81
2020/12/02 01:48:11;;;;;;;59.85;22.13;;;;;;;9.22;77.06;101981.28;5001966;28;20041;-80
2020/12/02 01:51:22;;;;;;;55.00;21.25;;;;;;;9.22;77.10;101978.63;5020869;28;20092;-81
2020/12/02 01:54:03;;;;;;;59.25;21.40;;;;;;;9.22;77.09;101986.56;5001135;28;20045;-81
2020/12/02 01:56:54;;;;;;;52.92;21.40;;;;;;;9.22;76.77;101989.22;5021582;28;20046;-81
2020/12/02 01:59:20;;;;;;;56.08;21.45;;;;;;;9.22;76.79;101991.84;5026390;28;20048;-81
2020/12/02 02:01:46;;;;;;;50.95;20.13;;;;;;;9.22;76.77;101994.50;5020082;28;20048;-81
2020/12/02 02:04:17;;;;;;;61.38;21.70;;;;;;;9.23;76.88;101997.13;5004004;28;20072;-81
2020/12/02 02:07:07;;;;;;;55.03;20.55;;;;;;;9.24;76.73;101995.34;5031181;28;20420;-81
2020/12/02 02:09:34;;;;;;;58.38;20.60;;;;;;;9.24;76.88;101990.03;5021373;28;20087;-81
2020/12/02 02:12:31;;;;;;;55.35;20.38;;;;;;;9.22;76.66;101998.00;5042272;28;20041;-81
2020/12/02 02:15:35;;;;;;;62.35;21.80;;;;;;;9.22;76.91;101997.13;4985242;28;20050;-81
2020/12/02 02:18:06;;;;;;;55.58;19.38;;;;;;;9.22;77.17;101991.84;5029830;28;20440;-79
2020/12/02 02:20:36;;;;;;;61.65;21.50;;;;;;;9.20;76.60;101998.94;5055138;28;20091;-79
2020/12/02 02:23:05;;;;;;;60.78;21.38;;;;;;;9.19;76.85;101994.56;5026706;28;20037;-79
2020/12/02 02:25:33;;;;;;;51.85;20.33;;;;;;;9.18;76.99;101988.41;5041498;28;20132;-79
2020/12/02 02:28:01;;;;;;;56.03;20.52;;;;;;;9.18;77.22;101990.19;5044957;28;20091;-79
2020/12/02 02:30:28;;;;;;;58.25;20.90;;;;;;;9.16;76.81;101988.44;5030520;28;20045;-79
2020/12/02 02:32:54;;;;;;;63.13;21.77;;;;;;;9.18;76.78;101984.91;5029847;28;20071;-79
2020/12/02 02:35:21;;;;;;;67.45;22.48;;;;;;;9.19;77.10;101986.63;5035364;28;20056;-79
2020/12/02 02:37:47;;;;;;;66.50;22.77;;;;;;;9.20;76.82;101977.81;5030139;28;20053;-79
2020/12/02 02:40:14;;;;;;;63.70;21.83;;;;;;;9.20;76.99;101981.31;5024314;28;20045;-79
2020/12/02 02:42:46;;;;;;;69.07;22.30;;;;;;;9.21;76.83;101976.88;5050177;28;20083;-80
2020/12/02 02:45:38;;;;;;;65.18;21.52;;;;;;;9.21;76.94;101979.53;5026279;28;20045;-79
2020/12/02 02:48:07;;;;;;;57.40;20.70;;;;;;;9.21;76.91;101984.81;5028685;28;20057;-79
2020/12/02 02:50:35;;;;;;;69.22;22.00;;;;;;;9.21;76.95;101975.13;5027639;28;20060;-80
2020/12/02 02:53:12;;;;;;;67.65;22.52;;;;;;;9.23;76.76;101977.72;5021050;28;20503;-79
2020/12/02 02:55:39;;;;;;;71.10;22.23;;;;;;;9.23;76.65;101977.72;5048209;28;20041;-79
2020/12/02 02:58:05;;;;;;;69.63;23.42;;;;;;;9.23;76.76;101977.72;5029537;28;20045;-79
2020/12/02 03:00:33;;;;;;;70.50;22.67;;;;;;;9.22;76.77;101982.13;5028744;28;20049;-79
2020/12/02 03:02:59;;;;;;;78.10;23.38;;;;;;;9.21;76.57;101980.41;5029164;28;20041;-80
2020/12/02 03:05:26;;;;;;;68.55;22.92;;;;;;;9.21;76.59;101975.13;5029461;28;20060;-79
2020/12/02 03:07:57;;;;;;;75.10;23.30;;;;;;;9.22;76.87;101970.72;5026956;28;20415;-79
2020/12/02 03:10:28;;;;;;;69.80;22.42;;;;;;;9.23;76.73;101967.16;5031546;28;20107;-79
2020/12/02 03:12:58;;;;;;;74.20;23.77;;;;;;;9.24;76.64;101974.19;5044374;28;20040;-79
2020/12/02 03:15:24;;;;;;;75.15;23.85;;;;;;;9.23;76.63;101972.44;5028814;28;20050;-79
2020/12/02 03:17:51;;;;;;;87.75;24.67;;;;;;;9.24;76.68;101974.19;5027773;28;20402;-79
2020/12/02 03:20:24;;;;;;;68.20;23.02;;;;;;;9.22;76.45;101978.63;5027363;28;20432;-79
2020/12/02 03:22:50;;;;;;;74.65;24.42;;;;;;;9.21;76.59;101974.25;5012184;28;20418;-80
2020/12/02 03:25:22;;;;;;;75.35;24.77;;;;;;;9.20;76.63;101972.50;5050987;28;20116;-79
2020/12/02 03:27:48;;;;;;;75.50;24.15;;;;;;;9.19;76.99;101971.63;5047542;28;20123;-79
2020/12/02 03:30:14;;;;;;;76.75;24.02;;;;;;;9.20;76.73;101970.72;5008200;28;20049;-79
2020/12/02 03:32:40;;;;;;;75.05;24.83;;;;;;;9.22;76.41;101976.00;5031532;28;20412;-79
2020/12/02 03:35:11;;;;;;;80.55;24.17;;;;;;;9.23;76.69;101964.50;5051832;28;20045;-79
2020/12/02 03:37:37;;;;;;;72.53;25.10;;;;;;;9.23;76.71;101972.44;5032190;28;20041;-81
2020/12/02 03:40:08;;;;;;;82.50;24.60;;;;;;;9.22;76.67;101965.41;5029303;28;20057;-79
2020/12/02 03:42:34;;;;;;;68.00;23.08;;;;;;;9.22;76.70;101965.41;5041853;28;20985;-79
2020/12/02 03:45:00;;;;;;;67.13;21.50;;;;;;;9.21;76.43;101959.28;5028809;28;20500;-79
2020/12/02 03:47:27;;;;;;;62.85;22.30;;;;;;;9.19;76.66;101954.91;5029080;28;20045;-79
2020/12/02 03:49:53;;;;;;;63.63;21.77;;;;;;;9.19;76.93;101954.91;5025538;28;20060;-79
2020/12/02 03:52:19;;;;;;;53.47;20.23;;;;;;;9.18;77.02;101947.91;5023960;28;20038;-79
2020/12/02 03:54:45;;;;;;;54.95;19.52;;;;;;;9.16;76.56;101951.44;5011645;28;20132;-80
2020/12/02 03:57:11;;;;;;;43.10;15.70;;;;;;;9.14;76.79;101947.94;5044564;28;20045;-79
2020/12/02 03:59:37;;;;;;;39.70;15.63;;;;;;;9.12;76.46;101954.19;5005427;28;20048;-79
2020/12/02 04:02:04;;;;;;;39.67;16.77;;;;;;;9.11;77.01;101952.44;5031301;28;20116;-79
2020/12/02 04:04:30;;;;;;;45.35;16.70;;;;;;;9.11;76.91;101953.28;5027376;28;20052;-80
2020/12/02 04:06:56;;;;;;;47.05;16.73;;;;;;;9.13;76.84;101946.19;5029751;28;20033;-79
2020/12/02 04:09:22;;;;;;;38.22;16.48;;;;;;;9.15;77.04;101954.09;5029808;28;20037;-80
2020/12/02 04:11:48;;;;;;;45.30;15.88;;;;;;;9.18;76.80;101955.81;5031593;28;20637;-79
2020/12/02 04:14:14;;;;;;;40.30;15.48;;;;;;;9.17;76.84;101952.28;5041819;28;20245;-80
2020/12/02 04:16:40;;;;;;;44.25;17.17;;;;;;;9.18;76.83;101945.25;5029637;28;20440;-79
2020/12/02 04:19:06;;;;;;;44.60;17.35;;;;;;;9.19;76.70;101949.63;5046458;28;20428;-79
2020/12/02 04:21:32;;;;;;;40.67;16.02;;;;;;;9.21;76.57;101947.81;5031566;28;20037;-80
2020/12/02 04:23:58;;;;;;;44.17;18.33;;;;;;;9.20;76.55;101940.78;5030224;28;20033;-79
2020/12/02 04:26:26;;;;;;;44.03;17.70;;;;;;;9.22;76.77;101944.28;5030189;28;20057;-79
2020/12/02 04:28:52;;;;;;;42.35;16.90;;;;;;;9.23;76.82;101940.72;5030069;28;20164;-80
2020/12/02 04:31:20;;;;;;;51.63;18.05;;;;;;;9.22;76.78;101946.91;5029465;28;20055;-80
2020/12/02 04:33:46;;;;;;;51.22;18.20;;;;;;;9.20;76.65;101948.72;5016949;28;20057;-80
2020/12/02 04:36:13;;;;;;;68.25;21.10;;;;;;;9.19;76.52;101942.53;5029236;28;20065;-80
2020/12/02 04:38:39;;;;;;;64.88;21.48;;;;;;;9.16;76.54;101935.56;5044329;28;20065;-80
2020/12/02 04:41:11;;;;;;;69.53;21.33;;;;;;;9.13;76.73;101935.63;5007993;28;20458;-80
2020/12/02 04:43:45;;;;;;;81.22;23.05;;;;;;;9.14;76.60;101942.66;5028853;28;20411;-80
2020/12/02 04:46:18;;;;;;;70.53;19.58;;;;;;;9.11;76.66;101937.44;5026851;28;20045;-79
2020/12/02 04:48:49;;;;;;;89.35;24.40;;;;;;;9.09;76.82;101939.25;5009053;28;20055;-80
2020/12/02 04:51:20;;;;;;;70.22;20.45;;;;;;;9.10;76.51;101935.72;5028323;28;20044;-80
2020/12/02 04:53:50;;;;;;;76.80;23.13;;;;;;;9.09;76.54;101923.38;5014548;28;20048;-80
2020/12/02 04:56:17;;;;;;;62.47;20.92;;;;;;;9.10;76.55;101925.13;5032567;28;20048;-80
2020/12/02 04:58:47;;;;;;;62.25;20.15;;;;;;;9.11;76.63;101926.84;5021203;28;20104;-80
2020/12/02 05:01:19;;;;;;;57.53;19.45;;;;;;;9.10;76.62;101925.13;5029408;28;20100;-80
2020/12/02 05:04:01;;;;;;;58.10;18.70;;;;;;;9.06;76.64;101923.47;5025824;28;20038;-80
2020/12/02 05:06:45;;;;;;;51.45;17.70;;;;;;;9.04;76.60;101920.00;5045820;28;20420;-80
2020/12/02 05:09:25;;;;;;;50.20;17.25;;;;;;;9.02;76.90;101920.91;5018800;28;20046;-80
2020/12/02 05:12:21;;;;;;;50.28;16.50;;;;;;;8.98;76.85;101914.81;5047091;28;20044;-80
2020/12/02 05:14:48;;;;;;;44.83;16.50;;;;;;;8.97;76.77;101913.09;5033718;28;20053;-80
2020/12/02 05:17:25;;;;;;;42.78;17.27;;;;;;;8.96;76.71;101914.84;5042019;28;20492;-81
2020/12/02 05:20:13;;;;;;;45.90;15.90;;;;;;;8.96;76.77;101906.06;4989098;28;20549;-80
2020/12/02 05:22:43;;;;;;;39.40;16.55;;;;;;;8.93;76.58;101906.13;5023764;28;20068;-80
2020/12/02 05:25:18;;;;;;;51.10;18.00;;;;;;;8.91;76.38;101907.91;5011369;28;20072;-80
2020/12/02 05:27:48;;;;;;;45.03;16.95;;;;;;;8.89;76.99;101918.53;5044675;28;20052;-80
2020/12/02 05:30:21;;;;;;;42.70;16.65;;;;;;;8.88;76.73;101918.56;5031205;28;20048;-80
2020/12/02 05:33:03;;;;;;;43.28;16.92;;;;;;;8.87;76.79;101917.69;5028582;28;20037;-80
2020/12/02 05:35:32;;;;;;;40.00;15.60;;;;;;;8.88;76.71;101918.56;5049525;28;20045;-80
2020/12/02 05:38:06;;;;;;;39.88;15.77;;;;;;;8.89;76.82;101915.00;5034989;28;20041;-80
2020/12/02 05:40:32;;;;;;;36.45;15.13;;;;;;;8.90;76.93;101916.75;5019767;28;20144;-80
2020/12/02 05:43:06;;;;;;;46.05;16.90;;;;;;;8.92;77.07;101914.94;5013313;28;20038;-79
2020/12/02 05:45:40;;;;;;;44.22;16.15;;;;;;;8.93;77.14;101916.69;5028380;28;20046;-80
2020/12/02 05:48:31;;;;;;;55.77;18.47;;;;;;;8.97;76.88;101913.09;5029538;28;20508;-79
2020/12/02 05:50:57;;;;;;;53.65;18.77;;;;;;;8.98;76.76;101914.81;5049645;28;20283;-80
2020/12/02 05:53:29;;;;;;;58.08;20.48;;;;;;;8.97;76.79;101918.38;5030938;28;20416;-80
2020/12/02 05:55:56;;;;;;;56.22;20.10;;;;;;;8.98;76.92;101914.81;5035559;28;20098;-81
2020/12/02 05:58:27;;;;;;;53.00;18.73;;;;;;;8.99;76.62;101921.84;5033132;28;20045;-80
2020/12/02 06:00:53;;;;;;;60.03;19.45;;;;;;;9.01;76.71;101913.91;5030672;28;20040;-81
2020/12/02 06:03:31;;;;;;;56.28;19.83;;;;;;;8.98;76.79;101914.81;5009667;28;20439;-80
2020/12/02 06:06:05;;;;;;;58.45;18.15;;;;;;;9.01;76.48;101908.59;5050446;28;20049;-81
2020/12/02 06:08:33;;;;;;;51.75;18.52;;;;;;;9.00;76.44;101907.72;5017162;28;20398;-80
2020/12/02 06:11:21;;;;;;;54.58;19.38;;;;;;;8.98;76.60;101898.97;5052376;28;20037;-80
2020/12/02 06:13:53;;;;;;;57.85;19.58;;;;;;;9.00;76.52;101904.22;5041225;28;20124;-80
2020/12/02 06:16:39;;;;;;;44.75;17.85;;;;;;;8.98;76.73;101901.59;4983665;28;20061;-80
2020/12/02 06:19:16;;;;;;;49.78;18.50;;;;;;;8.98;76.95;101901.59;5027991;28;20720;-80
2020/12/02 06:21:45;;;;;;;48.75;17.50;;;;;;;8.96;76.80;101901.63;5015336;28;20045;-80
2020/12/02 06:24:22;;;;;;;50.47;17.65;;;;;;;8.97;76.61;101899.88;5022206;28;20068;-80
2020/12/02 06:26:48;;;;;;;51.95;18.75;;;;;;;8.97;76.94;101894.59;5029519;28;20044;-81
2020/12/02 06:29:36;;;;;;;47.72;16.85;;;;;;;8.98;76.61;101887.53;5049620;28;20120;-80
2020/12/02 06:32:15;;;;;;;51.60;18.48;;;;;;;8.97;76.77;101891.94;5033445;28;20040;-81
2020/12/02 06:34:42;;;;;;;47.75;15.77;;;;;;;8.98;76.83;101884.88;5034979;28;20067;-80
2020/12/02 06:37:24;;;;;;;50.58;17.75;;;;;;;8.94;76.74;101886.72;5053605;28;20056;-81
2020/12/02 06:39:54;;;;;;;50.63;17.33;;;;;;;8.94;76.96;101881.44;4985631;28;20452;-80
2020/12/02 06:42:41;;;;;;;49.25;18.52;;;;;;;8.92;76.98;101878.81;5030310;28;20576;-80
2020/12/02 06:45:16;;;;;;;51.58;17.63;;;;;;;8.93;76.92;101879.72;5048771;28;20045;-81
2020/12/02 06:47:48;;;;;;;52.10;18.77;;;;;;;8.93;76.93;101879.72;5033458;28;20040;-81
2020/12/02 06:50:18;;;;;;;49.28;18.33;;;;;;;8.91;76.76;101881.50;5036139;28;20052;-80
2020/12/02 06:52:44;;;;;;;50.47;17.30;;;;;;;8.90;76.96;101880.63;5034358;28;20037;-80
2020/12/02 06:55:27;;;;;;;51.78;18.08;;;;;;;8.91;76.73;101884.13;5035346;28;20043;-81
2020/12/02 06:57:59;;;;;;;51.78;17.90;;;;;;;8.88;76.83;101878.94;5033615;28;20094;-80
2020/12/02 07:00:29;;;;;;;43.80;17.33;;;;;;;8.87;76.63;101879.81;5047778;28;20671;-81
2020/12/02 07:03:02;;;;;;;50.58;18.02;;;;;;;8.87;77.09;101877.19;5038475;28;20101;-81
2020/12/02 07:05:35;;;;;;;47.53;17.00;;;;;;;8.86;76.69;101878.09;5013355;28;20050;-81
2020/12/02 07:08:21;;;;;;;45.55;16.65;;;;;;;8.86;76.68;101873.69;5012435;28;20045;-81
2020/12/02 07:10:56;;;;;;;49.70;17.20;;;;;;;8.86;76.46;101872.81;5016922;28;20077;-81
2020/12/02 07:13:24;;;;;;;49.33;16.83;;;;;;;8.86;76.82;101864.91;5003940;28;20053;-81
2020/12/02 07:15:49;;;;;;;47.45;17.77;;;;;;;8.85;76.65;101868.41;5023030;28;20288;-81
2020/12/02 07:18:23;;;;;;;49.10;17.63;;;;;;;8.83;76.82;101872.88;5032477;28;20075;-81
2020/12/02 07:21:07;;;;;;;53.22;18.90;;;;;;;8.84;76.75;101864.06;4999029;28;20456;-82
2020/12/02 07:23:33;;;;;;;45.50;17.65;;;;;;;8.86;76.77;101883.38;5015566;28;20045;-82
2020/12/02 07:26:00;;;;;;;48.08;17.85;;;;;;;8.88;77.04;101881.56;5004454;28;20573;-82
2020/12/02 07:28:26;;;;;;;49.90;18.02;;;;;;;8.89;77.03;101883.28;5028790;28;20587;-81
2020/12/02 07:30:53;;;;;;;51.97;19.38;;;;;;;8.90;76.52;101875.34;5026235;28;20044;-82
2020/12/02 07:33:23;;;;;;;52.25;18.88;;;;;;;8.91;76.67;101870.91;5033010;28;20508;-82
2020/12/02 07:36:05;;;;;;;53.67;18.67;;;;;;;8.91;76.78;101876.22;5017318;28;20064;-82
2020/12/02 07:38:31;;;;;;;51.67;19.35;;;;;;;8.93;76.77;101874.44;4989601;28;20048;-81
2020/12/02 07:41:15;;;;;;;51.53;18.35;;;;;;;8.94;76.63;101876.16;5029333;28;20065;-81
2020/12/02 07:43:46;;;;;;;48.75;18.35;;;;;;;8.96;76.45;101879.63;4999252;28;20045;-81
2020/12/02 07:46:13;;;;;;;51.70;18.80;;;;;;;8.95;76.64;101877.91;5032752;28;20072;-82
2020/12/02 07:48:40;;;;;;;52.67;18.63;;;;;;;8.97;76.49;101881.38;5016366;28;20038;-82
2020/12/02 07:51:17;;;;;;;51.63;19.48;;;;;;;8.99;76.75;101878.72;5036153;28;20523;-82
2020/12/02 07:53:49;;;;;;;56.70;18.92;;;;;;;8.99;76.65;101884.84;5012218;28;20042;-82
2020/12/02 07:56:37;;;;;;;40.85;17.50;;;;;;;8.98;76.59;101891.03;5018823;28;20564;-82
2020/12/02 07:59:06;;;;;;;45.95;18.02;;;;;;;8.98;76.77;101883.09;5023258;28;20049;-82
2020/12/02 08:01:35;;;;;;;41.92;17.05;;;;;;;8.98;76.61;101888.38;5016392;28;20498;-81
2020/12/02 08:04:21;;;;;;;51.83;19.52;;;;;;;8.98;76.55;101883.09;5016643;28;20083;-82
2020/12/02 08:06:56;;;;;;;52.63;19.45;;;;;;;8.96;76.77;101880.50;5033994;28;20043;-82
2020/12/02 08:09:22;;;;;;;60.13;20.17;;;;;;;8.97;76.75;101881.38;5014322;28;20293;-81
2020/12/02 08:11:58;;;;;;;48.97;18.55;;;;;;;8.98;76.70;101871.69;5013678;28;20433;-82
2020/12/02 08:14:49;;;;;;;44.53;16.55;;;;;;;8.97;76.50;101876.09;5027556;28;20064;-82
2020/12/02 08:17:20;;;;;;;55.45;19.98;;;;;;;8.98;76.83;101866.38;4974271;28;20049;-82
2020/12/02 08:19:54;;;;;;;53.17;19.63;;;;;;;8.94;76.82;101865.59;4999019;28;20048;-82
2020/12/02 08:22:20;;;;;;;55.65;21.75;;;;;;;8.93;76.71;101866.50;5024741;28;20049;-82
2020/12/02 08:24:47;;;;;;;59.53;21.25;;;;;;;8.92;76.68;101862.09;5006273;28;20400;-82
2020/12/02 08:27:15;;;;;;;50.90;20.67;;;;;;;8.92;76.79;101860.31;5019134;28;20064;-82
2020/12/02 08:29:49;;;;;;;62.97;22.77;;;;;;;8.93;76.94;101859.44;5016249;28;20079;-82
2020/12/02 08:32:25;;;;;;;64.55;23.13;;;;;;;8.95;76.75;101851.47;5047283;28;20045;-82
2020/12/02 08:34:51;;;;;;;61.83;22.00;;;;;;;8.95;76.88;101846.19;4999585;28;20037;-82
2020/12/02 08:37:20;;;;;;;62.75;22.50;;;;;;;9.00;76.84;101849.59;5014948;28;20081;-82
2020/12/02 08:39:48;;;;;;;56.97;22.38;;;;;;;9.02;76.69;101842.50;5051826;28;20052;-82
2020/12/02 08:42:35;;;;;;;63.40;23.08;;;;;;;9.03;76.42;101844.25;5038615;28;20045;-82
2020/12/02 08:45:18;;;;;;;61.38;21.25;;;;;;;9.05;76.66;101842.44;5015920;28;20045;-82
2020/12/02 08:47:51;;;;;;;52.45;19.67;;;;;;;9.08;76.31;101842.38;5035681;28;20143;-83
2020/12/02 08:50:28;;;;;;;55.20;19.77;;;;;;;9.11;76.74;101837.00;5029867;28;20049;-81
2020/12/02 08:52:58;;;;;;;52.90;19.00;;;;;;;9.13;76.69;101837.84;5034601;28;20037;-81
2020/12/02 08:55:25;;;;;;;50.25;18.63;;;;;;;9.14;76.70;101831.66;5041349;28;20053;-81
2020/12/02 08:57:52;;;;;;;55.08;19.40;;;;;;;9.15;76.32;101830.75;5008557;28;20060;-81
2020/12/02 09:00:20;;;;;;;54.00;20.33;;;;;;;9.18;76.52;101831.59;5054522;28;20049;-81
2020/12/02 09:02:47;;;;;;;54.55;19.83;;;;;;;9.21;76.50;101826.22;5054522;28;20037;-81
2020/12/02 09:05:13;;;;;;;52.28;18.63;;;;;;;9.22;76.27;101827.97;5020239;28;20053;-81
2020/12/02 09:07:40;;;;;;;55.53;19.60;;;;;;;9.22;76.26;101820.03;5037791;28;20116;-81
2020/12/02 09:10:06;;;;;;;50.55;19.45;;;;;;;9.25;76.61;101825.22;5045498;28;20052;-81
2020/12/02 09:12:33;;;;;;;59.47;20.73;;;;;;;9.27;76.21;101819.03;5035917;28;20076;-81
2020/12/02 09:14:58;;;;;;;57.88;20.27;;;;;;;9.28;76.21;101817.25;5000178;28;20054;-80
2020/12/02 09:17:25;;;;;;;62.67;20.30;;;;;;;9.30;76.30;101815.44;5003030;28;20081;-81
2020/12/02 09:19:51;;;;;;;63.95;20.50;;;;;;;9.31;76.20;101811.91;5024327;28;20512;-82
2020/12/02 09:22:18;;;;;;;61.97;20.30;;;;;;;9.32;76.12;101808.31;5026107;28;20044;-81
2020/12/02 09:24:46;;;;;;;61.25;20.58;;;;;;;9.31;76.13;101811.91;5013125;28;20080;-81
2020/12/02 09:27:13;;;;;;;63.80;21.20;;;;;;;9.31;75.96;101811.91;5047340;28;20046;-81
2020/12/02 09:29:39;;;;;;;63.22;21.13;;;;;;;9.33;76.24;101812.72;5048101;28;20041;-81
2020/12/02 09:32:06;;;;;;;62.63;21.42;;;;;;;9.33;76.32;101797.72;5046590;28;20099;-81
2020/12/02 09:34:33;;;;;;;66.53;21.52;;;;;;;9.37;76.27;101793.22;5042167;28;20116;-81
2020/12/02 09:36:59;;;;;;;65.82;21.40;;;;;;;9.39;76.52;101788.78;5031523;28;20047;-81
2020/12/02 09:39:27;;;;;;;71.60;22.88;;;;;;;9.41;76.13;101794.88;5028931;28;20049;-81
2020/12/02 09:42:22;;;;;;;62.58;20.92;;;;;;;9.41;76.24;101786.97;5046050;28;20105;-80
2020/12/02 09:45:15;;;;;;;66.95;22.35;;;;;;;9.42;76.08;101794.00;5020136;28;20045;-81
2020/12/02 09:47:43;;;;;;;63.83;21.27;;;;;;;9.43;76.36;101795.72;5029506;28;20099;-81
2020/12/02 09:50:09;;;;;;;60.20;20.98;;;;;;;9.44;76.22;101781.59;5048556;28;20045;-81
2020/12/02 09:52:40;;;;;;;67.38;21.80;;;;;;;9.45;76.20;101778.03;5013615;28;20073;-82
2020/12/02 09:55:18;;;;;;;65.65;21.70;;;;;;;9.47;76.16;101776.22;5043549;28;20092;-81
2020/12/02 09:57:44;;;;;;;67.43;21.92;;;;;;;9.48;76.46;101775.31;5023151;28;20052;-82
2020/12/02 10:00:12;;;;;;;76.60;23.00;;;;;;;9.53;76.23;101767.25;5043364;28;20072;-81
2020/12/02 10:02:56;;;;;;;62.55;22.10;;;;;;;9.58;76.22;101772.44;5023549;28;20116;-81
2020/12/02 10:05:45;;;;;;;72.05;21.95;;;;;;;9.59;76.20;101768.88;5045922;28;20051;-81
2020/12/02 10:08:42;;;;;;;73.78;22.33;;;;;;;9.61;76.13;101767.09;5007862;28;20154;-81
2020/12/02 10:11:30;;;;;;;69.13;21.88;;;;;;;9.60;76.09;101755.63;5017462;28;20041;-81
2020/12/02 10:14:25;;;;;;;68.55;22.20;;;;;;;9.59;75.92;101760.94;5043718;28;20033;-81
2020/12/02 10:16:55;;;;;;;73.75;21.40;;;;;;;9.59;76.14;101758.28;5008943;28;20053;-81
2020/12/02 10:19:27;;;;;;;75.03;22.17;;;;;;;9.58;76.03;101753.94;5041014;28;20091;-82
2020/12/02 10:22:16;;;;;;;73.05;23.30;;;;;;;9.57;75.88;101754.81;5045138;28;20053;-82
2020/12/02 10:24:53;;;;;;;64.15;20.73;;;;;;;9.58;76.01;101756.56;5013387;28;20073;-81
2020/12/02 10:27:53;;;;;;;75.63;21.20;;;;;;;9.54;76.06;101746.06;5036865;28;20516;-82
2020/12/02 10:30:22;;;;;;;76.38;23.30;;;;;;;9.53;76.33;101739.06;5055918;28;20041;-82
2020/12/02 10:33:07;;;;;;;73.57;22.20;;;;;;;9.55;76.20;101737.25;5023414;28;20041;-81
2020/12/02 10:35:39;;;;;;;71.85;21.63;;;;;;;9.58;76.36;101730.13;5037106;28;20048;-82
2020/12/02 10:38:11;;;;;;;73.88;21.92;;;;;;;9.59;76.08;101731.84;5029707;28;20057;-81
2020/12/02 10:40:41;;;;;;;76.88;23.23;;;;;;;9.60;76.24;101723.03;4998281;28;20069;-82
2020/12/02 10:43:55;;;;;;;75.00;22.25;;;;;;;9.62;76.25;101713.25;5030398;28;20541;-81
2020/12/02 10:46:48;;;;;;;71.85;22.77;;;;;;;9.65;76.19;101710.53;4977886;28;20056;-82
2020/12/02 10:49:30;;;;;;;71.65;22.23;;;;;;;9.66;76.03;101707.88;5040522;28;20051;-82
2020/12/02 10:51:58;;;;;;;66.00;22.10;;;;;;;9.65;76.22;101710.53;4991268;28;20045;-82
2020/12/02 10:54:27;;;;;;;70.63;22.77;;;;;;;9.65;76.05;101713.19;5001465;28;20053;-82
2020/12/02 10:56:56;;;;;;;78.75;22.85;;;;;;;9.67;76.11;101708.72;5022457;28;20046;-81
2020/12/02 10:59:24;;;;;;;74.20;24.60;;;;;;;9.70;76.08;101700.69;5017585;28;20128;-81
2020/12/02 11:01:51;;;;;;;74.60;23.77;;;;;;;9.71;75.95;101694.50;5000193;28;20045;-81
2020/12/02 11:04:18;;;;;;;75.22;24.50;;;;;;;9.72;76.03;101690.97;5016905;28;20050;-82
2020/12/02 11:07:02;;;;;;;78.15;24.25;;;;;;;9.75;76.06;101689.06;5047306;28;20041;-81
2020/12/02 11:09:41;;;;;;;75.90;23.35;;;;;;;9.79;75.95;101687.22;5025368;28;20054;-81
2020/12/02 11:12:33;;;;;;;79.50;24.15;;;;;;;9.77;75.81;101677.59;5031775;28;20047;-81
2020/12/02 11:15:09;;;;;;;81.80;23.98;;;;;;;9.70;75.72;101666.28;5036183;28;20041;-81
2020/12/02 11:17:58;;;;;;;81.15;25.45;;;;;;;9.65;76.19;101663.78;5016666;28;20168;-81
2020/12/02 11:20:51;;;;;;;74.78;22.95;;;;;;;9.65;76.09;101658.50;5026476;28;20080;-82
2020/12/02 11:23:31;;;;;;;78.38;23.52;;;;;;;9.68;76.07;101652.25;5021027;28;20498;-81
2020/12/02 11:26:19;;;;;;;90.35;26.30;;;;;;;9.67;76.01;101653.19;5031147;28;20053;-82
2020/12/02 11:28:46;;;;;;;90.50;24.98;;;;;;;9.65;75.87;101649.72;5019740;28;20483;-81
2020/12/02 11:31:37;;;;;;;92.47;26.45;;;;;;;9.59;75.88;101647.22;5033554;28;20475;-82
2020/12/02 11:34:21;;;;;;;88.15;23.73;;;;;;;9.57;76.28;101639.34;5049002;28;20041;-82
2020/12/02 11:37:02;;;;;;;86.50;25.75;;;;;;;9.57;76.30;101638.47;5032705;28;20389;-82
2020/12/02 11:39:55;;;;;;;92.93;25.00;;;;;;;9.54;76.04;101635.00;5032772;28;20041;-82
2020/12/02 11:42:36;;;;;;;101.63;26.33;;;;;;;9.55;76.40;101635.88;5030097;28;20053;-82
2020/12/02 11:45:21;;;;;;;99.60;27.20;;;;;;;9.57;76.26;101622.59;5019155;28;20034;-82